الصفحة الرئيسية
METAR-TAF:

METAR-TAF

مطار :

بونبي, مايكرونيزيا

دائرة عرض: 06-59N, خط طول: 158-12E, ارتفاع: 2 متر

مراقبة الطقس الحالي

تاريخ ووقت الإصدار 6ساعات و 44 دقيقة قبل الساعة 02:58UTC
ريح 6 عقدة من الشرق
درجة الحرارة 32°درجة مئوية
الرطوبة 71%
ضغط 1007 hPa
الرؤية: 24.1 كم
غيوم متفرقة على ارتفاع 1800 قدم
غيوم مفككة على ارتفاع 13000 قدم
غيوم مفككة على ارتفاع 30000 قدم

METAR: PTPN 200258Z 08006KT 15SM SCT018 BKN130 BKN300 32/26 A2975 RMK LAST

زمن: 20:42 (09:42 UTC)

توقعات

تاريخ ووقت الإصدار 5ساعات و 47 دقيقة قبل الساعة 03:55UTC
التوقعات صالحة من20 الساعة 04 UTC إلى 20 الساعة 24 UTC
ريح 8 عقدة من الشرق
الرؤية: 10 كم
غيوم متفرقة على ارتفاع 1800 قدم
غيوم متفرقة على ارتفاع 3000 قدم
غيوم متفرقة على ارتفاع 10000 قدم
زخات في الجوار,

TAF: PTPN 200355Z 2004/2024 08008KT P6SM VCSH SCT018 SCT030 SCT100

أرصاد الطقس والتوقعات من أكثر من 4000 مطار (تقارير الطقس للمطار METAR والتنبؤ بالطقس بالمطارTAF).

المحطات المتاحة هي النقط الصفراء والحمراء على الخريطة.

حرك المؤشر فوق النقطة لمعرفة اسم المحطة.

ثم انقر لمعرفة أرصاد وتوقعات الطقس.

لتغيير الخارطة: اضغط على الأزرار الخضراء مع رمز الصليب الأسود للتكبير. على الزر الأخضر مع شرطة للتصغير، أو على الأسهم الخضراء للخرائط المجاورة.


METAR-TAF: